Time;durP1;ratioP1;P1;durP2;ratioP2;P2;SDS_P1;SDS_P2;PMS_P1;PMS_P2;Temp;Humidity;BMP_temperature;BMP_pressure;BME280_temperature;BME280_humidity;BME280_pressure;Samples;Min_cycle;Max_cycle;Signal;HPM_P1;HPM_P2
2022/09/01 00:01:54;;;;;;;1.50;1.10;;;;;;;21.27;56.99;99579.69;4476428;32;33986;-77
2022/09/01 00:04:25;;;;;;;3.10;1.40;;;;;;;21.12;57.88;99588.50;4476376;32;34405;-76
2022/09/01 00:06:58;;;;;;;;;;;;;;;20.84;58.94;99589.25;4491664;31;33643;-76
2022/09/01 00:09:27;;;;;;;2.50;1.40;;;;;;;21.04;58.77;99588.09;4492126;31;33278;-78
2022/09/01 00:11:56;;;;;;;2.12;1.23;;;;;;;20.88;59.08;99598.69;4497558;31;33888;-77
2022/09/01 00:14:27;;;;;;;2.42;1.50;;;;;;;20.91;59.02;99603.78;4490973;31;34564;-77
2022/09/01 00:16:58;;;;;;;1.90;1.30;;;;;;;20.83;60.52;99609.50;4492121;31;33718;-79
2022/09/01 00:19:28;;;;;;;2.83;1.37;;;;;;;20.58;61.65;99617.06;4492539;31;33068;-78
2022/09/01 00:21:59;;;;;;;1.95;1.27;;;;;;;20.79;60.22;99612.37;4497564;31;33317;-78
2022/09/01 00:24:28;;;;;;;3.10;1.50;;;;;;;20.51;61.50;99605.97;4497122;31;34106;-77
2022/09/01 00:26:57;;;;;;;3.30;1.58;;;;;;;20.43;63.25;99614.31;4492006;31;33717;-76
2022/09/01 00:29:26;;;;;;;2.08;1.15;;;;;;;20.50;61.43;99614.00;4487350;31;33753;-78
2022/09/01 00:31:55;;;;;;;2.53;1.45;;;;;;;20.12;62.68;99614.28;4481060;31;33555;-80
2022/09/01 00:34:23;;;;;;;4.93;1.27;;;;;;;20.05;63.81;99616.41;4483687;32;34080;-77
2022/09/01 00:36:54;;;;;;;1.67;1.00;;;;;;;20.08;65.25;99618.00;4480409;31;33600;-77
2022/09/01 00:39:24;;;;;;;;;;;;;;;20.29;64.22;99618.66;4494052;31;33231;-75
2022/09/01 00:41:53;;;;;;;1.80;1.20;;;;;;;20.21;64.48;99621.69;4493790;31;33592;-76
2022/09/01 00:44:25;;;;;;;2.95;1.50;;;;;;;19.79;67.96;99610.75;4487652;31;34581;-77
2022/09/01 00:46:57;;;;;;;2.20;1.42;;;;;;;19.93;68.20;99609.16;4482599;32;33789;-77
2022/09/01 00:49:30;;;;;;;2.92;1.80;;;;;;;19.54;70.04;99618.16;4491833;31;33025;-77
2022/09/01 00:52:07;;;;;;;3.37;1.60;;;;;;;19.51;70.08;99619.19;4492254;31;32102;-76
2022/09/01 00:54:39;;;;;;;3.70;1.75;;;;;;;19.88;67.73;99624.34;4494288;31;33758;-79
2022/09/01 00:57:08;;;;;;;2.92;1.65;;;;;;;19.89;67.52;99623.44;4499619;31;33914;-77
2022/09/01 00:59:39;;;;;;;0.90;0.80;;;;;;;19.73;68.50;99629.47;4494048;31;33232;-77
2022/09/01 01:02:09;;;;;;;2.25;1.35;;;;;;;19.59;68.90;99624.88;4496411;31;34720;-77
2022/09/01 01:04:42;;;;;;;2.25;1.42;;;;;;;19.85;68.19;99630.63;4492918;31;33652;-77
2022/09/01 01:07:12;;;;;;;1.27;1.12;;;;;;;19.67;68.30;99629.78;4493441;31;34205;-78
2022/09/01 01:09:44;;;;;;;1.90;1.37;;;;;;;19.80;67.97;99628.22;4499307;31;33463;-77
2022/09/01 01:12:17;;;;;;;1.50;1.12;;;;;;;19.66;66.51;99628.06;4493976;31;33416;-76
2022/09/01 01:14:48;;;;;;;1.75;1.33;;;;;;;19.72;67.59;99627.78;4493714;31;34652;-78
2022/09/01 01:17:19;;;;;;;1.77;1.23;;;;;;;19.26;68.47;99622.22;4493712;31;33816;-77
2022/09/01 01:25:34;;;;;;;1.48;1.10;;;;;;;19.53;70.64;99619.09;4477842;32;33731;-76
2022/09/01 01:28:08;;;;;;;2.22;1.12;;;;;;;19.34;71.09;99617.41;4478026;32;33980;-79
2022/09/01 01:30:39;;;;;;;2.20;1.17;;;;;;;19.17;70.47;99620.87;4479118;32;33199;-76
2022/09/01 01:33:08;;;;;;;2.42;1.10;;;;;;;19.11;72.00;99618.56;4477924;32;35714;-79
2022/09/01 01:35:40;;;;;;;1.52;1.00;;;;;;;19.18;71.04;99617.34;4483187;32;34715;-79
2022/09/01 01:38:10;;;;;;;2.03;1.25;;;;;;;19.20;70.55;99619.87;4487967;31;33026;-77
2022/09/01 01:40:40;;;;;;;2.60;1.33;;;;;;;19.26;70.81;99618.72;4492142;31;33572;-77
2022/09/01 01:43:10;;;;;;;2.12;1.08;;;;;;;19.25;70.97;99620.47;4489625;31;33264;-77
2022/09/01 01:45:39;;;;;;;1.50;1.05;;;;;;;19.33;71.01;99615.72;4477369;32;34865;-77
2022/09/01 01:48:09;;;;;;;1.17;1.08;;;;;;;19.46;70.46;99620.34;4483330;32;34569;-76
2022/09/01 01:50:47;;;;;;;1.77;1.02;;;;;;;19.47;70.52;99617.63;4476993;32;32834;-78
2022/09/01 01:53:19;;;;;;;3.62;1.67;;;;;;;19.07;71.82;99610.91;4477151;32;34637;-78
2022/09/01 01:55:50;;;;;;;3.83;1.48;;;;;;;19.09;68.91;99606.44;4477771;31;33451;-78
2022/09/01 01:58:20;;;;;;;1.95;1.02;;;;;;;19.02;70.89;99600.59;4483019;32;33313;-79
2022/09/01 02:00:50;;;;;;;1.77;1.10;;;;;;;18.75;73.34;99593.12;4477331;32;32878;-78
2022/09/01 02:03:23;;;;;;;3.75;1.40;;;;;;;18.74;73.78;99585.28;4477373;32;33817;-78
2022/09/01 02:05:54;;;;;;;2.87;1.40;;;;;;;18.81;73.37;99585.88;4485398;31;34841;-77
2022/09/01 02:08:24;;;;;;;1.43;1.13;;;;;;;18.80;73.73;99581.53;4493193;31;33106;-77
2022/09/01 02:10:56;;;;;;;1.45;1.10;;;;;;;19.04;72.10;99583.00;4499021;31;34164;-79
2022/09/01 02:13:29;;;;;;;2.65;1.27;;;;;;;18.81;72.90;99586.72;4485450;31;34576;-78
2022/09/01 02:16:01;;;;;;;2.05;1.10;;;;;;;18.89;72.66;99586.34;4477260;32;34639;-78
2022/09/01 02:18:34;;;;;;;3.08;1.40;;;;;;;18.71;72.97;99580.19;4477687;32;33436;-77
2022/09/01 02:21:09;;;;;;;3.20;0.93;;;;;;;18.78;73.40;99584.25;4477170;32;33548;-78
2022/09/01 02:23:44;;;;;;;2.30;1.10;;;;;;;18.97;72.88;99584.22;4482938;32;34485;-77
2022/09/01 02:26:15;;;;;;;2.33;1.33;;;;;;;18.55;73.29;99580.06;4477133;32;34011;-76
2022/09/01 02:28:48;;;;;;;1.42;1.00;;;;;;;19.12;70.14;99580.81;4477535;32;33941;-77
2022/09/01 02:31:27;;;;;;;3.58;1.15;;;;;;;19.19;70.58;99586.62;4477614;31;34257;-76
2022/09/01 02:33:56;;;;;;;2.10;1.10;;;;;;;19.18;70.10;99585.78;4477234;32;32981;-77
2022/09/01 02:36:25;;;;;;;2.20;1.65;;;;;;;19.24;69.89;99589.03;4482470;32;33967;-77
2022/09/01 02:38:54;;;;;;;1.75;1.17;;;;;;;19.36;67.57;99577.88;4489860;31;33346;-77
2022/09/01 02:41:33;;;;;;;2.67;0.90;;;;;;;19.06;68.96;99570.59;4476995;32;32994;-79
2022/09/01 02:44:04;;;;;;;1.85;0.90;;;;;;;18.61;71.54;99569.28;4486799;31;33389;-76
2022/09/01 02:46:33;;;;;;;2.22;1.12;;;;;;;18.74;65.34;99567.75;4496304;31;33674;-77
2022/09/01 02:49:03;;;;;;;1.20;0.90;;;;;;;17.90;68.49;99580.47;4477709;32;34456;-76
2022/09/01 02:51:33;;;;;;;1.30;1.08;;;;;;;18.18;68.64;99575.72;4476926;32;35005;-76
2022/09/01 02:54:02;;;;;;;1.00;0.80;;;;;;;18.52;65.18;99567.94;4477627;32;34547;-75
2022/09/01 02:56:34;;;;;;;;;;;;;;;18.29;66.72;99563.78;4477397;32;33510;-78
2022/09/01 02:59:03;;;;;;;0.77;0.75;;;;;;;18.37;67.22;99559.94;4482748;32;34215;-77
2022/09/01 03:01:33;;;;;;;0.88;0.82;;;;;;;18.03;71.70;99558.91;4477002;32;32925;-76
2022/09/01 03:04:06;;;;;;;1.30;1.05;;;;;;;18.17;71.41;99560.84;4477450;31;34732;-76
2022/09/01 03:06:36;;;;;;;3.05;1.25;;;;;;;18.50;69.78;99551.37;4489934;31;34692;-77
2022/09/01 03:09:07;;;;;;;2.00;1.20;;;;;;;18.54;68.80;99547.69;4498310;31;34203;-75
2022/09/01 03:11:42;;;;;;;1.27;0.85;;;;;;;18.74;69.38;99545.88;4482202;31;34255;-77
2022/09/01 03:14:11;;;;;;;2.20;1.20;;;;;;;18.84;69.70;99549.78;4477153;32;34315;-79
2022/09/01 03:16:40;;;;;;;0.65;0.65;;;;;;;19.00;69.55;99554.28;4476897;32;33805;-77
2022/09/01 03:19:10;;;;;;;0.75;0.75;;;;;;;19.01;69.04;99561.25;4476912;32;33741;-78
2022/09/01 03:21:41;;;;;;;1.50;1.00;;;;;;;18.98;69.34;99567.50;4491500;31;33405;-77
2022/09/01 03:24:13;;;;;;;1.98;1.02;;;;;;;18.94;68.53;99568.56;4492898;31;33331;-79
2022/09/01 03:26:45;;;;;;;1.40;1.10;;;;;;;18.95;69.28;99578.19;4492728;31;33793;-77
2022/09/01 03:29:18;;;;;;;1.50;1.27;;;;;;;19.11;68.97;99579.13;4492751;31;33884;-77
2022/09/01 03:31:47;;;;;;;1.58;0.88;;;;;;;19.13;67.82;99581.66;4492544;31;33488;-75
2022/09/01 03:34:17;;;;;;;4.05;1.10;;;;;;;19.29;65.85;99579.13;4498496;31;33392;-77
2022/09/01 03:36:49;;;;;;;2.95;1.08;;;;;;;19.17;66.25;99580.59;4492453;31;33854;-79
2022/09/01 03:39:18;;;;;;;2.67;0.82;;;;;;;18.94;66.15;99576.47;4479158;31;33672;-76
2022/09/01 03:41:48;;;;;;;1.67;1.08;;;;;;;18.88;65.38;99571.53;4479502;32;33143;-79
2022/09/01 03:44:17;;;;;;;1.53;1.10;;;;;;;18.54;67.01;99563.47;4493732;31;34710;-76
2022/09/01 03:46:46;;;;;;;1.58;1.10;;;;;;;18.36;66.97;99556.44;4492310;31;33440;-76
2022/09/01 03:49:22;;;;;;;3.20;2.45;;;;;;;18.17;69.21;99561.75;4492127;31;35078;-76
2022/09/01 03:51:56;;;;;;;2.78;1.25;;;;;;;18.21;67.42;99552.78;4491873;31;34051;-76
2022/09/01 03:54:29;;;;;;;1.90;0.90;;;;;;;18.17;67.76;99559.13;4480749;31;33954;-77
2022/09/01 03:57:04;;;;;;;2.60;1.10;;;;;;;17.84;69.21;99553.63;4481771;32;34104;-75
2022/09/01 03:59:33;;;;;;;2.92;1.92;;;;;;;18.07;68.60;99553.44;4476538;32;34030;-76
2022/09/01 04:02:03;;;;;;;3.05;1.40;;;;;;;17.97;69.66;99553.91;4475798;32;33362;-76
2022/09/01 04:04:32;;;;;;;2.17;1.10;;;;;;;17.55;73.07;99547.88;4476270;32;34631;-78
2022/09/01 04:07:00;;;;;;;1.75;1.15;;;;;;;18.04;70.54;99544.84;4497638;31;34727;-77
2022/09/01 04:09:30;;;;;;;1.40;1.08;;;;;;;17.91;71.18;99549.81;4495134;31;33746;-76
2022/09/01 04:11:59;;;;;;;6.75;1.23;;;;;;;18.11;70.83;99544.47;4488302;31;33131;-75
2022/09/01 04:14:29;;;;;;;1.80;1.00;;;;;;;18.01;72.10;99547.59;4476232;32;34281;-77
2022/09/01 04:19:44;;;;;;;1.30;0.95;;;;;;;18.47;68.37;99545.44;4482096;32;34387;-78
2022/09/01 04:22:14;;;;;;;2.55;1.62;;;;;;;18.19;70.82;99545.88;4476014;32;33997;-77
2022/09/01 04:24:44;;;;;;;3.03;1.33;;;;;;;17.97;72.77;99544.25;4475920;32;33073;-79
2022/09/01 04:27:16;;;;;;;1.62;1.20;;;;;;;18.07;73.13;99535.06;4476100;32;34049;-79
2022/09/01 04:29:47;;;;;;;2.70;1.70;;;;;;;18.37;72.74;99538.94;4476396;31;34259;-77
2022/09/01 04:32:20;;;;;;;1.33;1.12;;;;;;;18.55;70.91;99543.28;4494771;31;33508;-80
2022/09/01 04:34:49;;;;;;;1.15;1.00;;;;;;;18.24;71.81;99546.53;4491934;31;33359;-80
2022/09/01 04:37:21;;;;;;;1.60;1.10;;;;;;;18.36;71.89;99556.44;4491467;31;33528;-78
2022/09/01 04:39:51;;;;;;;1.65;1.00;;;;;;;18.44;71.55;99556.09;4492240;31;34446;-77
2022/09/01 04:42:25;;;;;;;1.95;1.37;;;;;;;18.33;72.60;99559.22;4497220;31;34093;-79
2022/09/01 04:44:58;;;;;;;1.35;1.17;;;;;;;18.39;72.15;99560.69;4481495;31;33764;-78
2022/09/01 04:47:30;;;;;;;2.47;1.48;;;;;;;18.39;71.72;99553.69;4490179;31;34718;-79
2022/09/01 04:50:12;;;;;;;1.85;1.00;;;;;;;18.27;72.21;99551.66;4477070;31;33140;-79
2022/09/01 04:52:44;;;;;;;1.95;1.05;;;;;;;18.46;72.07;99562.12;4481305;31;34792;-80
2022/09/01 04:55:17;;;;;;;;;;;;;;;18.36;72.08;99555.59;4490091;31;33567;-80
2022/09/01 04:57:48;;;;;;;2.40;1.33;;;;;;;18.48;72.60;99563.78;4492002;31;35066;-81
2022/09/01 05:00:23;;;;;;;2.90;1.62;;;;;;;18.37;72.70;99558.16;4477671;31;34630;-79
2022/09/01 05:02:54;;;;;;;4.62;1.27;;;;;;;18.62;72.84;99564.88;4477749;31;34174;-80
2022/09/01 05:05:23;;;;;;;1.85;1.37;;;;;;;18.55;73.23;99566.94;4491145;31;33638;-81
2022/09/01 05:07:54;;;;;;;1.70;1.10;;;;;;;18.79;71.29;99561.44;4496700;31;33477;-78
2022/09/01 05:10:28;;;;;;;2.30;1.23;;;;;;;18.96;68.94;99574.59;4489057;31;33721;-79
2022/09/01 05:12:58;;;;;;;3.25;1.40;;;;;;;18.66;69.68;99575.16;4490280;31;33784;-78
2022/09/01 05:15:29;;;;;;;1.50;1.10;;;;;;;18.63;70.72;99583.19;4490734;31;33776;-78
2022/09/01 05:18:00;;;;;;;1.20;0.90;;;;;;;18.65;70.94;99581.34;4488967;31;33933;-80
2022/09/01 05:20:30;;;;;;;2.25;1.20;;;;;;;18.61;71.49;99573.69;4494173;31;33727;-79
2022/09/01 05:23:00;;;;;;;2.55;1.48;;;;;;;18.37;72.22;99573.09;4488162;31;33563;-77
2022/09/01 05:25:29;;;;;;;2.70;1.20;;;;;;;18.75;69.47;99577.34;4490563;31;33344;-77
2022/09/01 05:27:58;;;;;;;2.58;1.37;;;;;;;18.65;69.59;99576.09;4477609;31;34018;-76
2022/09/01 05:30:29;;;;;;;1.45;0.98;;;;;;;18.34;71.87;99566.19;4496181;31;34835;-76
2022/09/01 05:32:58;;;;;;;2.37;1.30;;;;;;;18.40;70.92;99570.31;4492989;31;34588;-76
2022/09/01 05:35:30;;;;;;;2.42;1.50;;;;;;;18.42;70.91;99574.56;4485490;31;33771;-77
2022/09/01 05:38:01;;;;;;;2.22;1.30;;;;;;;18.49;71.17;99581.22;4482517;31;33538;-77
2022/09/01 05:40:31;;;;;;;1.75;1.40;;;;;;;18.38;71.78;99585.28;4486794;31;33130;-78
2022/09/01 05:43:01;;;;;;;1.85;1.23;;;;;;;18.54;70.76;99581.84;4483499;31;32934;-79
2022/09/01 05:45:32;;;;;;;3.58;1.17;;;;;;;18.42;70.70;99574.56;4477206;32;33844;-78
2022/09/01 05:48:22;;;;;;;7.07;1.47;;;;;;;18.37;71.41;99580.97;4477617;32;34613;-78
2022/09/01 05:50:56;;;;;;;1.67;1.15;;;;;;;18.59;69.53;99579.00;4477694;32;33541;-80
2022/09/01 05:53:25;;;;;;;1.98;1.12;;;;;;;18.45;69.82;99582.28;4477161;31;33026;-78
2022/09/01 05:55:55;;;;;;;2.03;1.33;;;;;;;18.31;69.99;99582.06;4483269;32;34216;-80
2022/09/01 05:58:26;;;;;;;2.78;1.33;;;;;;;18.13;70.72;99583.78;4492893;31;34345;-82
2022/09/01 06:01:21;;;;;;;2.10;1.25;;;;;;;18.04;70.31;99584.22;4493372;31;33869;-81
2022/09/01 06:03:53;;;;;;;1.27;0.90;;;;;;;17.98;71.10;99582.72;4491591;31;33423;-79
2022/09/01 06:06:24;;;;;;;2.50;1.33;;;;;;;17.91;71.28;99576.03;4488335;31;33997;-78
2022/09/01 06:08:57;;;;;;;3.72;1.17;;;;;;;17.54;73.80;99576.78;4488774;31;33664;-80
2022/09/01 06:11:31;;;;;;;2.40;1.42;;;;;;;17.77;72.50;99576.63;4476596;31;34368;-79
2022/09/01 06:14:01;;;;;;;1.58;1.20;;;;;;;17.52;74.22;99579.50;4490737;31;33841;-79
2022/09/01 06:16:32;;;;;;;3.15;1.35;;;;;;;17.56;73.89;99588.06;4492509;31;35306;-80
2022/09/01 06:19:01;;;;;;;2.72;1.55;;;;;;;17.74;71.73;99582.03;4478282;31;32580;-80
2022/09/01 06:21:30;;;;;;;1.42;1.10;;;;;;;17.15;75.27;99588.06;4483017;31;33551;-80
2022/09/01 06:24:00;;;;;;;1.27;1.00;;;;;;;17.86;71.63;99591.16;4483801;31;33086;-81
2022/09/01 06:26:31;;;;;;;2.12;1.12;;;;;;;18.13;69.11;99589.87;4485246;31;34602;-79
2022/09/01 06:29:03;;;;;;;1.75;1.10;;;;;;;17.72;71.25;99591.72;4476391;31;33978;-82
2022/09/01 06:31:37;;;;;;;1.10;1.00;;;;;;;18.10;69.48;99597.06;4482019;31;33817;-82
2022/09/01 06:34:08;;;;;;;2.25;1.37;;;;;;;17.99;70.26;99592.28;4476574;31;33756;-81
2022/09/01 06:36:39;;;;;;;1.30;1.15;;;;;;;18.23;69.63;99595.56;4477125;31;34174;-81
2022/09/01 06:39:08;;;;;;;3.03;1.67;;;;;;;18.28;70.48;99593.56;4483892;31;33587;-81
2022/09/01 06:41:37;;;;;;;2.10;1.10;;;;;;;18.47;69.87;99592.72;4492087;31;33879;-84
2022/09/01 06:44:07;;;;;;;1.50;1.13;;;;;;;18.42;69.72;99590.31;4493588;31;32732;-82
2022/09/01 06:46:45;;;;;;;1.70;1.00;;;;;;;18.52;70.46;99594.19;4484472;31;33480;-82
2022/09/01 06:49:14;;;;;;;1.62;1.08;;;;;;;18.68;68.70;99604.00;4476385;31;33716;-82
2022/09/01 06:51:43;;;;;;;0.88;0.88;;;;;;;18.73;67.40;99607.25;4479945;31;33252;-81
2022/09/01 06:54:13;;;;;;;1.02;0.90;;;;;;;18.66;65.37;99596.19;4493387;31;33409;-81
2022/09/01 06:56:43;;;;;;;0.95;0.88;;;;;;;18.37;69.04;99610.69;4492585;31;33928;-84
2022/09/01 06:59:31;;;;;;;0.90;0.80;;;;;;;18.22;70.17;99607.00;4482027;31;34032;-83
2022/09/01 07:02:22;;;;;;;3.03;1.50;;;;;;;18.61;69.47;99600.81;4485085;31;34670;-82
2022/09/01 07:04:55;;;;;;;6.68;1.10;;;;;;;18.87;69.81;99612.72;4478331;31;33154;-83
2022/09/01 07:07:33;;;;;;;1.40;0.98;;;;;;;18.82;70.16;99619.13;4476671;31;33891;-81
2022/09/01 07:10:28;;;;;;;1.33;0.90;;;;;;;19.12;69.69;99628.16;4490973;31;32310;-84
2022/09/01 07:13:00;;;;;;;1.45;0.93;;;;;;;19.28;68.64;99630.00;4498461;31;34558;-79
2022/09/01 07:15:38;;;;;;;3.03;1.10;;;;;;;19.34;66.86;99621.81;4489893;31;32840;-81
2022/09/01 07:18:30;;;;;;;1.12;0.80;;;;;;;19.14;66.89;99622.81;4477275;32;34030;-81
2022/09/01 07:21:01;;;;;;;1.35;1.08;;;;;;;19.27;66.62;99629.16;4483567;31;33945;-81
2022/09/01 07:23:50;;;;;;;1.45;0.90;;;;;;;19.14;66.50;99620.19;4482662;31;34314;-80
2022/09/01 07:26:41;;;;;;;2.03;1.08;;;;;;;19.04;67.19;99632.06;4483662;31;33062;-82
2022/09/01 07:29:16;;;;;;;1.48;1.05;;;;;;;19.14;67.86;99626.28;4492428;31;33504;-80
2022/09/01 07:31:45;;;;;;;2.25;1.45;;;;;;;19.17;66.95;99636.66;4479773;31;34359;-80
2022/09/01 07:34:20;;;;;;;2.05;0.77;;;;;;;19.18;64.72;99640.13;4476606;32;33675;-82
2022/09/01 07:37:10;;;;;;;3.03;1.33;;;;;;;19.02;67.72;99640.03;4479627;31;33379;-82
2022/09/01 07:39:59;;;;;;;2.72;1.02;;;;;;;18.97;66.43;99639.44;4479749;31;33862;-81
2022/09/01 07:42:56;;;;;;;0.82;0.80;;;;;;;19.15;65.71;99635.03;4487844;31;34405;-84
2022/09/01 07:45:47;;;;;;;1.35;1.00;;;;;;;19.22;65.83;99633.78;4486723;31;32897;-81
2022/09/01 07:48:28;;;;;;;1.40;0.90;;;;;;;19.20;66.67;99643.53;4488212;31;33373;-80
2022/09/01 07:51:20;;;;;;;1.00;0.90;;;;;;;19.23;65.55;99632.00;4476674;32;33584;-84
2022/09/01 07:54:08;;;;;;;2.17;1.00;;;;;;;19.04;66.59;99630.31;4476290;32;33517;-82
2022/09/01 07:56:39;;;;;;;1.10;0.88;;;;;;;18.73;68.05;99626.50;4476406;32;33785;-84
2022/09/01 07:59:08;;;;;;;1.45;1.00;;;;;;;18.64;68.73;99629.56;4476619;32;34220;-81
2022/09/01 08:01:46;;;;;;;1.83;1.10;;;;;;;19.09;68.71;99630.09;4482365;32;33520;-81
2022/09/01 08:04:17;;;;;;;1.95;0.80;;;;;;;19.10;67.06;99626.53;4479975;32;33411;-81
2022/09/01 08:06:47;;;;;;;0.80;0.80;;;;;;;19.30;67.29;99628.16;4474497;32;33391;-80
2022/09/01 08:09:16;;;;;;;1.77;1.10;;;;;;;19.29;68.15;99627.31;4474774;32;33672;-79
2022/09/01 08:12:05;;;;;;;1.27;0.95;;;;;;;19.51;66.01;99627.06;4474940;32;34145;-82
2022/09/01 08:14:36;;;;;;;2.37;1.08;;;;;;;19.52;67.23;99630.53;4480365;31;32307;-82
2022/09/01 08:17:05;;;;;;;1.40;0.90;;;;;;;19.45;66.49;99637.91;4476536;32;34476;-81
2022/09/01 08:19:55;;;;;;;0.85;0.85;;;;;;;19.86;63.31;99634.97;4476090;32;34062;-84
2022/09/01 08:22:28;;;;;;;1.20;0.90;;;;;;;19.87;65.58;99636.66;4475911;32;33653;-80
2022/09/01 08:24:57;;;;;;;1.73;0.90;;;;;;;20.16;64.04;99635.13;4476259;32;34168;-82
2022/09/01 08:27:26;;;;;;;1.83;0.95;;;;;;;20.28;62.20;99633.59;4481786;32;33812;-80
2022/09/01 08:29:55;;;;;;;1.30;0.77;;;;;;;20.32;59.97;99636.91;4477375;32;33292;-81
2022/09/01 08:32:25;;;;;;;1.30;1.00;;;;;;;20.01;58.81;99638.56;4485997;31;33180;-81
2022/09/01 08:34:53;;;;;;;1.52;0.88;;;;;;;20.12;58.85;99645.88;4491524;31;33471;-83
2022/09/01 08:37:22;;;;;;;0.60;0.60;;;;;;;19.54;62.45;99644.47;4491571;31;33445;-80
2022/09/01 08:39:53;;;;;;;0.98;0.70;;;;;;;20.09;59.38;99652.19;4497325;31;34032;-80
2022/09/01 08:42:37;;;;;;;1.27;1.00;;;;;;;19.67;63.65;99649.97;4491968;31;33699;-80
2022/09/01 08:45:09;;;;;;;0.75;0.65;;;;;;;19.89;62.47;99652.38;4480986;31;34893;-81
2022/09/01 08:47:39;;;;;;;1.37;0.93;;;;;;;19.55;58.88;99649.66;4475598;32;33826;-81
2022/09/01 08:50:28;;;;;;;1.40;0.80;;;;;;;20.14;56.62;99654.56;4477892;32;34341;-80
2022/09/01 08:53:02;;;;;;;1.50;0.90;;;;;;;20.04;58.49;99649.78;4483505;32;33637;-80
2022/09/01 08:55:41;;;;;;;;;;;;;;;20.01;59.66;99649.09;4479883;32;34542;-82
2022/09/01 08:58:11;;;;;;;1.65;0.90;;;;;;;19.84;56.22;99652.63;4477506;32;33473;-82
2022/09/01 09:00:45;;;;;;;1.08;0.70;;;;;;;19.96;58.89;99651.13;4478409;32;33423;-82
2022/09/01 09:03:26;;;;;;;3.80;1.27;;;;;;;20.01;57.17;99651.75;4478034;32;33686;-83
2022/09/01 09:06:15;;;;;;;3.35;0.80;;;;;;;20.14;56.88;99655.41;4477860;32;32347;-81
2022/09/01 09:08:58;;;;;;;3.00;0.80;;;;;;;20.14;55.92;99650.16;4483727;32;33626;-80
2022/09/01 09:11:43;;;;;;;1.20;0.80;;;;;;;20.03;58.40;99658.63;4477947;32;33117;-82
2022/09/01 09:14:18;;;;;;;2.85;0.95;;;;;;;20.00;60.57;99656.13;4477590;32;33375;-81
2022/09/01 09:16:49;;;;;;;1.62;1.00;;;;;;;19.97;62.04;99652.81;4477787;32;34579;-84
2022/09/01 09:19:24;;;;;;;1.00;0.68;;;;;;;20.15;62.96;99646.59;4477976;32;33106;-80
2022/09/01 09:21:54;;;;;;;0.85;0.80;;;;;;;20.45;60.86;99638.81;4483096;32;33450;-83
2022/09/01 09:24:27;;;;;;;0.95;0.70;;;;;;;19.76;64.12;99642.47;4477933;32;34561;-81
2022/09/01 09:27:08;;;;;;;1.50;0.98;;;;;;;20.10;63.17;99637.22;4491399;31;33372;-82
2022/09/01 09:29:41;;;;;;;1.67;0.50;;;;;;;20.31;60.65;99635.22;4493385;31;32493;-83
2022/09/01 09:32:13;;;;;;;1.23;0.70;;;;;;;20.48;61.44;99629.03;4494642;31;32823;-81
2022/09/01 09:35:18;;;;;;;1.20;0.73;;;;;;;20.63;62.32;99630.84;4499239;31;33460;-81
2022/09/01 09:37:47;;;;;;;1.40;1.00;;;;;;;20.89;59.24;99626.75;4498894;31;33529;-79
2022/09/01 09:40:18;;;;;;;1.40;0.70;;;;;;;21.06;55.86;99629.25;4493083;31;34803;-79
2022/09/01 09:43:05;;;;;;;1.73;0.80;;;;;;;20.69;55.92;99624.41;4483004;31;33700;-80
2022/09/01 09:45:36;;;;;;;1.42;0.68;;;;;;;20.69;57.42;99625.25;4476621;31;33920;-80
2022/09/01 09:48:26;;;;;;;2.00;0.98;;;;;;;20.89;57.28;99618.84;4477564;32;33960;-82
2022/09/01 09:50:56;;;;;;;2.20;0.82;;;;;;;20.62;57.90;99619.44;4482554;32;34590;-82
2022/09/01 09:53:31;;;;;;;1.80;0.95;;;;;;;20.77;56.35;99615.09;4481805;31;33795;-80
2022/09/01 09:56:01;;;;;;;1.52;1.12;;;;;;;20.57;59.38;99613.59;4491703;31;34413;-81
2022/09/01 09:58:37;;;;;;;2.35;1.12;;;;;;;20.33;59.42;99618.41;4490751;31;33565;-82
2022/09/01 10:01:09;;;;;;;1.48;0.90;;;;;;;20.65;55.62;99613.16;4487429;31;33551;-84
2022/09/01 10:03:42;;;;;;;2.15;0.85;;;;;;;20.55;58.06;99611.94;4488870;31;32220;-82
2022/09/01 10:06:13;;;;;;;0.93;0.60;;;;;;;20.36;60.67;99615.59;4485310;31;33679;-82
2022/09/01 10:08:46;;;;;;;1.33;0.80;;;;;;;20.73;57.21;99613.59;4482731;31;33648;-81
2022/09/01 10:11:28;;;;;;;1.12;0.68;;;;;;;20.45;61.15;99620.34;4480533;31;33392;-82
2022/09/01 10:14:07;;;;;;;3.50;0.70;;;;;;;20.63;57.62;99617.66;4486815;31;33672;-80
2022/09/01 10:16:41;;;;;;;1.75;1.10;;;;;;;20.31;56.90;99615.00;4486426;31;33262;-80
2022/09/01 10:19:18;;;;;;;1.35;0.57;;;;;;;20.59;58.63;99610.88;4485440;31;34362;-81
2022/09/01 10:21:47;;;;;;;2.72;1.12;;;;;;;21.02;55.99;99609.28;4492379;31;33784;-81
2022/09/01 10:24:19;;;;;;;1.00;0.90;;;;;;;21.18;54.03;99606.59;4492538;31;33788;-81
2022/09/01 10:26:56;;;;;;;0.43;0.43;;;;;;;21.12;56.28;99608.75;4482577;31;33508;-80
2022/09/01 10:29:30;;;;;;;1.67;0.77;;;;;;;21.20;55.18;99604.72;4492038;31;33766;-80
2022/09/01 10:32:06;;;;;;;1.65;0.85;;;;;;;21.40;53.06;99613.28;4492776;31;33755;-82
2022/09/01 10:34:55;;;;;;;1.17;0.98;;;;;;;21.31;54.44;99601.44;4485346;31;32962;-80
2022/09/01 10:37:27;;;;;;;0.93;0.65;;;;;;;21.46;51.07;99600.59;4489823;31;33479;-79
2022/09/01 10:40:18;;;;;;;1.30;0.80;;;;;;;21.19;51.89;99591.63;4484860;31;33848;-78
2022/09/01 10:43:16;;;;;;;1.37;0.80;;;;;;;21.55;51.83;99595.69;4482256;31;34322;-81
2022/09/01 10:45:47;;;;;;;1.62;0.90;;;;;;;20.96;50.93;99598.25;4496909;31;32969;-80
2022/09/01 10:48:29;;;;;;;1.37;0.70;;;;;;;21.26;50.62;99599.09;4490386;31;34457;-81
2022/09/01 10:51:44;;;;;;;2.05;0.90;;;;;;;20.86;51.09;99595.28;4491485;31;33067;-80
2022/09/01 10:54:50;;;;;;;1.20;0.77;;;;;;;20.90;48.75;99594.19;4430228;32;33821;-80
2022/09/01 10:57:30;;;;;;;1.23;0.80;;;;;;;21.12;47.76;99593.78;4428352;32;33731;-84
2022/09/01 11:00:30;;;;;;;1.27;0.70;;;;;;;21.48;52.68;99592.56;4441062;32;33087;-80
2022/09/01 11:03:53;;;;;;;1.23;0.70;;;;;;;21.43;46.55;99584.94;4434201;32;34510;-82
2022/09/01 11:06:55;;;;;;;0.68;0.50;;;;;;;21.93;50.08;99588.91;4442345;32;33804;-81
2022/09/01 11:09:42;;;;;;;2.15;0.70;;;;;;;21.70;47.92;99592.97;4440324;32;33055;-81
2022/09/01 11:12:32;;;;;;;1.15;0.80;;;;;;;21.81;49.99;99588.84;4442548;32;33986;-81
2022/09/01 11:15:03;;;;;;;0.70;0.55;;;;;;;21.71;46.27;99596.47;4421276;32;33899;-81
2022/09/01 11:17:35;;;;;;;1.15;0.68;;;;;;;21.91;47.89;99580.22;4446249;32;34523;-81
2022/09/01 11:20:07;;;;;;;0.77;0.60;;;;;;;22.47;45.14;99584.72;4440365;32;32901;-80
2022/09/01 11:22:40;;;;;;;1.95;0.88;;;;;;;22.31;44.21;99579.59;4440725;32;33511;-80
2022/09/01 11:25:38;;;;;;;0.75;0.60;;;;;;;22.73;42.88;99589.16;4428454;32;33563;-82
2022/09/01 11:28:44;;;;;;;1.48;0.73;;;;;;;22.24;46.79;99586.19;4442515;32;33726;-80
2022/09/01 11:31:37;;;;;;;1.50;0.70;;;;;;;22.49;42.76;99586.31;4492338;31;33294;-81
2022/09/01 11:34:12;;;;;;;1.58;0.55;;;;;;;22.74;44.94;99579.47;4492480;31;33538;-82
2022/09/01 11:36:53;;;;;;;0.70;0.45;;;;;;;22.16;45.73;99579.56;4498208;31;33762;-82
2022/09/01 11:39:42;;;;;;;2.08;1.08;;;;;;;22.71;41.02;99575.22;4476630;32;34224;-80
2022/09/01 11:42:18;;;;;;;1.25;0.60;;;;;;;22.99;39.98;99576.06;4476813;32;33745;-80
2022/09/01 11:44:51;;;;;;;0.70;0.50;;;;;;;23.06;38.66;99576.53;4476871;32;34328;-81
2022/09/01 11:47:25;;;;;;;1.40;0.65;;;;;;;22.64;40.12;99570.41;4469673;32;211231;-81
2022/09/01 11:49:56;;;;;;;0.50;0.50;;;;;;;22.74;39.58;99579.47;4482124;32;33966;-81
2022/09/01 11:52:28;;;;;;;1.27;0.73;;;;;;;22.62;40.81;99569.69;4476441;32;33393;-81
2022/09/01 11:54:59;;;;;;;1.33;0.73;;;;;;;23.18;39.66;99573.06;4476509;32;33587;-84
2022/09/01 11:57:31;;;;;;;1.27;0.40;;;;;;;23.25;38.33;99560.25;4476481;32;33705;-81
2022/09/01 12:00:01;;;;;;;0.55;0.50;;;;;;;23.27;40.37;99560.97;4476890;32;34111;-82
2022/09/01 12:02:44;;;;;;;1.37;0.75;;;;;;;23.52;39.54;99565.47;4481974;32;32941;-81
2022/09/01 12:05:26;;;;;;;1.55;0.50;;;;;;;23.69;41.13;99566.94;4476802;32;34031;-80
2022/09/01 12:07:55;;;;;;;0.40;0.40;;;;;;;24.30;35.15;99551.16;4474672;32;32472;-81
2022/09/01 12:10:31;;;;;;;1.27;0.85;;;;;;;24.09;36.83;99551.78;4476432;32;33910;-81
2022/09/01 12:13:05;;;;;;;0.95;0.50;;;;;;;24.38;38.67;99556.75;4478925;32;34156;-83
2022/09/01 12:15:36;;;;;;;0.32;0.32;;;;;;;24.33;39.06;99553.59;4481562;32;33697;-82
2022/09/01 12:18:18;;;;;;;1.30;0.50;;;;;;;24.48;37.29;99553.38;4478772;32;33845;-79